createdAt,value
2018-09-10T00:02:11.841Z,19.43
2018-09-10T00:04:40.294Z,19.36
2018-09-10T00:07:08.703Z,19.23
2018-09-10T00:09:37.161Z,19.14
2018-09-10T00:12:05.669Z,19.12
2018-09-10T00:14:34.124Z,19.03
2018-09-10T00:17:02.905Z,19.01
2018-09-10T00:19:31.353Z,18.92
2018-09-10T00:21:59.765Z,19.01
2018-09-10T00:24:28.189Z,18.96
2018-09-10T00:26:56.581Z,18.98
2018-09-10T00:29:24.973Z,19.01
2018-09-10T00:31:54.100Z,19.11
2018-09-10T00:34:22.501Z,19.13
2018-09-10T00:36:51.065Z,19.13
2018-09-10T00:39:19.605Z,19.14
2018-09-10T00:41:48.054Z,19.10
2018-09-10T00:44:16.451Z,19.05
2018-09-10T00:46:44.909Z,19.09
2018-09-10T00:49:13.308Z,18.99
2018-09-10T00:51:41.773Z,18.79
2018-09-10T00:54:10.271Z,18.87
2018-09-10T00:56:38.921Z,18.69
2018-09-10T00:59:07.377Z,18.65
2018-09-10T01:01:35.798Z,18.59
2018-09-10T01:04:04.297Z,18.55
2018-09-10T01:06:33.806Z,18.50
2018-09-10T01:09:02.185Z,18.44
2018-09-10T01:11:30.593Z,18.54
2018-09-10T01:13:58.984Z,18.59
2018-09-10T01:16:27.407Z,18.60
2018-09-10T01:18:55.813Z,18.48
2018-09-10T01:21:24.593Z,18.27
2018-09-10T01:23:53.149Z,18.09
2018-09-10T01:26:21.593Z,18.06
2018-09-10T01:28:49.993Z,17.99
2018-09-10T01:31:18.390Z,17.89
2018-09-10T01:33:51.876Z,17.86
2018-09-10T01:36:20.321Z,17.88
2018-09-10T01:38:48.744Z,17.97
2018-09-10T01:41:17.140Z,17.93
2018-09-10T01:43:45.578Z,17.96
2018-09-10T01:46:13.974Z,17.94
2018-09-10T01:48:42.394Z,17.84
2018-09-10T01:51:10.905Z,17.75
2018-09-10T01:53:39.321Z,17.70
2018-09-10T01:56:07.697Z,17.80
2018-09-10T01:58:37.322Z,17.82
2018-09-10T02:01:05.733Z,17.89
2018-09-10T02:03:35.768Z,17.93
2018-09-10T02:06:04.170Z,17.96
2018-09-10T02:08:32.589Z,17.99
2018-09-10T02:11:01.266Z,17.88
2018-09-10T02:13:29.668Z,17.83
2018-09-10T02:15:58.045Z,17.92
2018-09-10T02:18:26.526Z,17.89
2018-09-10T02:20:54.904Z,17.96
2018-09-10T02:23:23.300Z,18.00
2018-09-10T02:25:51.758Z,18.10
2018-09-10T02:28:20.137Z,18.06
2018-09-10T02:30:48.569Z,18.00
2018-09-10T02:33:16.936Z,18.06
2018-09-10T02:35:46.040Z,18.04
2018-09-10T02:38:14.703Z,18.06
2018-09-10T02:40:43.113Z,17.99
2018-09-10T02:43:11.681Z,17.94
2018-09-10T02:45:40.166Z,17.94
2018-09-10T02:48:08.533Z,17.93
2018-09-10T02:50:36.958Z,17.78
2018-09-10T02:53:06.705Z,17.81
2018-09-10T02:55:35.302Z,17.86
2018-09-10T02:58:03.713Z,17.88
2018-09-10T03:00:32.125Z,17.79
2018-09-10T03:03:00.547Z,17.78
2018-09-10T03:05:28.953Z,17.75
2018-09-10T03:07:57.349Z,17.70
2018-09-10T03:10:26.212Z,17.72
2018-09-10T03:12:55.441Z,17.86
2018-09-10T03:15:25.842Z,17.82
2018-09-10T03:17:54.292Z,17.85
2018-09-10T03:20:22.869Z,17.78
2018-09-10T03:22:51.276Z,17.75
2018-09-10T03:25:19.669Z,17.86
2018-09-10T03:27:48.101Z,17.92
2018-09-10T03:30:16.489Z,17.86
2018-09-10T03:32:44.915Z,17.89
2018-09-10T03:35:13.299Z,17.89
2018-09-10T03:37:43.168Z,17.87
2018-09-10T03:40:11.545Z,17.99
2018-09-10T03:42:40.558Z,17.92
2018-09-10T03:45:08.963Z,17.94
2018-09-10T03:47:37.393Z,17.88
2018-09-10T03:50:05.850Z,18.01
2018-09-10T03:52:34.322Z,17.95
2018-09-10T03:55:02.743Z,18.04
2018-09-10T03:57:31.181Z,17.92
2018-09-10T04:00:01.276Z,17.97
2018-09-10T04:02:29.711Z,18.03
2018-09-10T04:04:58.174Z,18.01
2018-09-10T04:07:26.589Z,18.05
2018-09-10T04:09:55.009Z,17.94
2018-09-10T04:12:23.414Z,17.97
2018-09-10T04:14:51.840Z,17.90
2018-09-10T04:17:20.359Z,17.85
2018-09-10T04:19:48.761Z,17.72
2018-09-10T04:22:17.167Z,17.73
2018-09-10T04:24:45.737Z,17.78
2018-09-10T04:27:14.161Z,17.84
2018-09-10T04:29:42.715Z,17.84
2018-09-10T04:32:11.089Z,17.89
2018-09-10T04:34:39.632Z,17.86
2018-09-10T04:37:08.006Z,17.91
2018-09-10T04:39:36.413Z,17.86
2018-09-10T04:42:04.831Z,17.84
2018-09-10T04:44:34.332Z,17.74
2018-09-10T04:47:02.883Z,17.75
2018-09-10T04:49:31.337Z,17.86
2018-09-10T04:51:59.668Z,17.88
2018-09-10T04:54:29.151Z,17.85
2018-09-10T04:56:57.585Z,17.90
2018-09-10T04:59:26.657Z,17.91
2018-09-10T05:01:55.250Z,17.91
2018-09-10T05:04:23.807Z,17.97
2018-09-10T05:06:52.207Z,18.08
2018-09-10T05:09:20.874Z,18.06
2018-09-10T05:11:50.557Z,18.00
2018-09-10T05:14:19.152Z,17.92
2018-09-10T05:16:47.625Z,18.02
2018-09-10T05:19:16.013Z,18.04
2018-09-10T05:21:44.449Z,17.91
2018-09-10T05:24:12.813Z,17.97
2018-09-10T05:26:41.208Z,17.95
2018-09-10T05:29:09.608Z,17.97
2018-09-10T05:31:38.014Z,18.00
2018-09-10T05:34:07.745Z,18.01
2018-09-10T05:36:36.266Z,18.07
2018-09-10T05:39:06.938Z,17.94
2018-09-10T05:41:35.499Z,18.08
2018-09-10T05:44:03.884Z,18.06
2018-09-10T05:46:32.301Z,18.06
2018-09-10T05:49:01.975Z,18.11
2018-09-10T05:51:30.393Z,18.19
2018-09-10T05:53:58.870Z,18.21
2018-09-10T05:56:27.293Z,18.16
2018-09-10T05:58:57.334Z,18.12
2018-09-10T06:01:25.798Z,18.06
2018-09-10T06:03:54.209Z,18.20
2018-09-10T06:06:22.659Z,18.12
2018-09-10T06:08:51.983Z,18.20
2018-09-10T06:11:20.356Z,18.31
2018-09-10T06:13:48.761Z,18.29
2018-09-10T06:16:17.202Z,18.34
2018-09-10T06:18:45.593Z,18.37
2018-09-10T06:21:14.017Z,18.44
2018-09-10T06:23:42.453Z,18.41
2018-09-10T06:26:10.972Z,18.50
2018-09-10T06:28:39.874Z,18.55
2018-09-10T06:31:09.826Z,18.55
2018-09-10T06:33:38.303Z,18.52
2018-09-10T06:36:06.680Z,18.55
2018-09-10T06:38:35.119Z,18.64
2018-09-10T06:41:03.538Z,18.70
2018-09-10T06:43:31.977Z,18.73
2018-09-10T06:46:00.349Z,18.81
2018-09-10T06:48:28.881Z,19.02
2018-09-10T06:50:57.303Z,19.26
2018-09-10T06:53:25.720Z,19.47
2018-09-10T06:55:54.101Z,19.63
2018-09-10T06:58:22.538Z,19.79
2018-09-10T07:00:50.934Z,19.85
2018-09-10T07:03:19.672Z,19.92
2018-09-10T07:05:48.149Z,20.00
2018-09-10T07:08:16.862Z,20.13
2018-09-10T07:10:45.257Z,20.17
2018-09-10T07:13:13.730Z,20.31
2018-09-10T07:15:42.224Z,20.41
2018-09-10T07:18:10.701Z,20.57
2018-09-10T07:20:39.197Z,20.78
2018-09-10T07:23:07.588Z,20.84
2018-09-10T07:25:36.012Z,20.84
2018-09-10T07:28:04.408Z,20.75
2018-09-10T07:30:32.850Z,20.71
2018-09-10T07:33:01.986Z,20.80
2018-09-10T07:35:30.417Z,20.91
2018-09-10T07:37:58.935Z,21.05
2018-09-10T07:40:27.373Z,21.17
2018-09-10T07:42:55.781Z,21.16
2018-09-10T07:45:24.229Z,21.32
2018-09-10T07:47:52.982Z,21.47
2018-09-10T07:50:21.452Z,21.54
2018-09-10T07:52:49.794Z,21.58
2018-09-10T07:55:18.214Z,21.75
2018-09-10T07:57:46.704Z,21.91
2018-09-10T08:00:15.145Z,22.07
2018-09-10T08:02:43.517Z,21.91
2018-09-10T08:05:11.974Z,22.01
2018-09-10T08:07:41.301Z,22.18
2018-09-10T08:10:09.797Z,22.31
2018-09-10T08:12:38.325Z,22.45
2018-09-10T08:15:06.739Z,22.44
2018-09-10T08:17:35.200Z,22.52
2018-09-10T08:20:04.501Z,22.57
2018-09-10T08:22:33.108Z,22.59
2018-09-10T08:25:01.932Z,22.71
2018-09-10T08:27:30.348Z,22.72
2018-09-10T08:29:58.747Z,22.61
2018-09-10T08:32:27.239Z,22.51
2018-09-10T08:34:55.641Z,22.48
2018-09-10T08:37:24.094Z,22.59
2018-09-10T08:39:52.513Z,22.79
2018-09-10T08:42:20.925Z,22.89
2018-09-10T08:44:49.306Z,22.97
2018-09-10T08:47:17.781Z,23.08
2018-09-10T08:49:46.595Z,23.11
2018-09-10T08:52:15.101Z,23.17
2018-09-10T08:54:43.779Z,23.13
2018-09-10T08:57:11.995Z,23.21
2018-09-10T08:59:40.514Z,23.33
2018-09-10T09:02:15.285Z,23.25
2018-09-10T09:04:43.735Z,23.27
2018-09-10T09:07:12.170Z,23.38
2018-09-10T09:09:41.177Z,23.46
2018-09-10T09:12:09.552Z,23.53
2018-09-10T09:14:37.976Z,23.70
2018-09-10T09:17:06.398Z,23.75
2018-09-10T09:19:34.906Z,23.74
2018-09-10T09:22:03.571Z,23.77
2018-09-10T09:24:32.086Z,23.72
2018-09-10T09:27:00.473Z,23.74
2018-09-10T09:29:28.976Z,23.73
2018-09-10T09:31:57.366Z,23.80
2018-09-10T09:34:29.945Z,23.88
2018-09-10T09:37:03.590Z,24.07
2018-09-10T09:39:37.114Z,24.21
2018-09-10T09:42:10.850Z,24.26
2018-09-10T09:44:44.611Z,24.36
2018-09-10T09:47:12.989Z,24.32
2018-09-10T09:49:41.355Z,24.18
2018-09-10T09:52:09.766Z,24.16
2018-09-10T09:54:38.856Z,24.12
2018-09-10T09:57:07.373Z,24.21
2018-09-10T09:59:35.849Z,24.31
2018-09-10T10:02:24.558Z,24.43
2018-09-10T10:04:52.972Z,24.48
2018-09-10T10:07:21.396Z,24.59
2018-09-10T10:09:49.781Z,24.64
2018-09-10T10:12:18.302Z,24.78
2018-09-10T10:14:46.700Z,24.80
2018-09-10T10:17:15.571Z,24.74
2018-09-10T10:19:44.058Z,24.72
2018-09-10T10:22:12.614Z,24.73
2018-09-10T10:24:41.105Z,24.83
2018-09-10T10:27:09.535Z,24.93
2018-09-10T10:29:37.921Z,24.94
2018-09-10T10:32:06.689Z,24.98
2018-09-10T10:34:35.394Z,25.01
2018-09-10T10:37:03.817Z,25.06
2018-09-10T10:39:32.196Z,24.88
2018-09-10T10:42:00.674Z,24.83
2018-09-10T10:44:29.054Z,24.84
2018-09-10T10:46:57.513Z,24.91
2018-09-10T10:49:25.885Z,25.01
2018-09-10T10:51:54.289Z,25.10
2018-09-10T10:54:22.741Z,24.84
2018-09-10T10:56:51.149Z,24.76
2018-09-10T10:59:19.577Z,24.76
2018-09-10T11:01:47.981Z,24.93
2018-09-10T11:04:17.427Z,25.00
2018-09-10T11:06:45.813Z,25.09
2018-09-10T11:09:14.237Z,25.17
2018-09-10T11:11:42.600Z,25.19
2018-09-10T11:14:11.019Z,25.25
2018-09-10T11:16:39.421Z,25.11
2018-09-10T11:19:07.933Z,25.08
2018-09-10T11:21:36.304Z,25.08
2018-09-10T11:24:04.756Z,25.00
2018-09-10T11:26:33.166Z,25.00
2018-09-10T11:29:01.813Z,24.98
2018-09-10T11:31:30.197Z,24.99
2018-09-10T11:33:58.600Z,25.18
2018-09-10T11:36:27.006Z,25.19
2018-09-10T11:38:55.506Z,25.16
2018-09-10T11:41:23.913Z,25.18
2018-09-10T11:43:52.294Z,25.23
2018-09-10T11:46:20.749Z,25.35
2018-09-10T11:48:49.411Z,25.39
2018-09-10T11:51:17.857Z,25.41
2018-09-10T11:53:46.237Z,25.49
2018-09-10T11:56:14.649Z,25.64
2018-09-10T11:58:43.029Z,25.73
2018-09-10T12:01:11.454Z,25.79
2018-09-10T12:03:39.864Z,25.90
2018-09-10T12:06:08.280Z,26.00
2018-09-10T12:08:36.657Z,26.04
2018-09-10T12:11:05.132Z,26.01
2018-09-10T12:13:33.568Z,25.98
2018-09-10T12:16:02.041Z,25.93
2018-09-10T12:18:30.448Z,26.00
2018-09-10T12:20:58.862Z,26.03
2018-09-10T12:23:27.243Z,26.07
2018-09-10T12:25:56.548Z,26.04
2018-09-10T12:28:24.921Z,25.98
2018-09-10T12:30:53.348Z,25.82
2018-09-10T12:33:21.776Z,25.68
2018-09-10T12:35:50.161Z,25.59
2018-09-10T12:38:18.581Z,25.70
2018-09-10T12:40:46.979Z,25.81
2018-09-10T12:43:15.405Z,25.94
2018-09-10T12:45:43.780Z,26.12
2018-09-10T12:48:12.195Z,26.07
2018-09-10T12:50:41.413Z,26.00
2018-09-10T12:53:09.843Z,26.01
2018-09-10T12:55:38.293Z,25.90
2018-09-10T12:58:06.725Z,25.99
2018-09-10T13:00:35.153Z,26.14
2018-09-10T13:03:03.652Z,26.27
2018-09-10T13:05:32.125Z,26.40
2018-09-10T13:08:00.598Z,26.36
2018-09-10T13:10:29.039Z,26.25
2018-09-10T13:12:57.425Z,26.35
2018-09-10T13:15:25.813Z,26.44
2018-09-10T13:17:54.213Z,26.39
2018-09-10T13:20:22.605Z,26.44
2018-09-10T13:22:51.254Z,26.52
2018-09-10T13:25:19.665Z,26.61
2018-09-10T13:27:48.065Z,26.69
2018-09-10T13:30:16.536Z,26.87
2018-09-10T13:32:44.901Z,26.94
2018-09-10T13:35:13.334Z,26.95
2018-09-10T13:37:41.711Z,26.98
2018-09-10T13:40:10.410Z,27.13
2018-09-10T13:42:38.772Z,27.22
2018-09-10T13:45:07.212Z,27.22
2018-09-10T13:47:35.589Z,27.25
2018-09-10T13:50:04.053Z,27.40
2018-09-10T13:52:32.445Z,27.51
2018-09-10T13:55:00.881Z,27.48
2018-09-10T13:57:29.270Z,27.40
2018-09-10T13:59:57.697Z,27.38
2018-09-10T14:02:26.085Z,27.26
2018-09-10T14:04:54.581Z,27.05
2018-09-10T14:07:22.981Z,26.87
2018-09-10T14:09:51.417Z,26.77
2018-09-10T14:12:19.844Z,26.78
2018-09-10T14:14:48.270Z,26.85
2018-09-10T14:17:16.700Z,27.31
2018-09-10T14:19:45.150Z,27.63
2018-09-10T14:22:13.600Z,27.73
2018-09-10T14:24:41.985Z,27.93
2018-09-10T14:27:10.403Z,27.89
2018-09-10T14:29:38.804Z,27.99
2018-09-10T14:32:07.253Z,28.23
2018-09-10T14:34:35.671Z,28.17
2018-09-10T14:37:04.147Z,28.51
2018-09-10T14:39:32.545Z,28.72
2018-09-10T14:42:00.986Z,28.86
2018-09-10T14:44:29.381Z,29.32
2018-09-10T14:46:57.805Z,29.88
2018-09-10T14:49:26.213Z,30.35
2018-09-10T14:51:54.653Z,30.61
2018-09-10T14:54:23.033Z,30.41
2018-09-10T14:56:51.465Z,30.39
2018-09-10T14:59:19.855Z,30.29
2018-09-10T15:01:48.281Z,30.25
2018-09-10T15:04:16.742Z,29.96
2018-09-10T15:06:45.145Z,30.11
2018-09-10T15:09:13.540Z,30.44
2018-09-10T15:11:41.962Z,30.99
2018-09-10T15:14:10.374Z,31.35
2018-09-10T15:16:38.773Z,31.56
2018-09-10T15:19:07.313Z,31.63
2018-09-10T15:21:35.620Z,31.21
2018-09-10T15:24:04.053Z,30.67
2018-09-10T15:26:32.445Z,31.02
2018-09-10T15:29:00.854Z,32.11
2018-09-10T15:31:29.256Z,33.08
2018-09-10T15:33:57.694Z,32.64
2018-09-10T15:36:26.078Z,31.72
2018-09-10T15:38:54.481Z,30.81
2018-09-10T15:41:22.857Z,29.94
2018-09-10T15:43:51.273Z,29.35
2018-09-10T15:46:19.645Z,28.86
2018-09-10T15:48:48.097Z,28.48
2018-09-10T15:51:16.550Z,28.57
2018-09-10T15:53:44.949Z,29.16
2018-09-10T15:56:13.332Z,30.05
2018-09-10T15:58:48.521Z,31.56
2018-09-10T16:01:16.902Z,33.95
2018-09-10T16:03:45.416Z,35.35
2018-09-10T16:06:13.776Z,37.02
2018-09-10T16:08:42.182Z,37.54
2018-09-10T16:11:10.629Z,38.09
2018-09-10T16:13:40.280Z,37.64
2018-09-10T16:16:08.698Z,36.23
2018-09-10T16:18:37.118Z,37.75
2018-09-10T16:21:05.652Z,38.60
2018-09-10T16:23:34.044Z,40.41
2018-09-10T16:26:03.045Z,41.14
2018-09-10T16:28:31.510Z,41.49
2018-09-10T16:30:59.944Z,39.65
2018-09-10T16:33:28.331Z,37.69
2018-09-10T16:35:56.764Z,35.71
2018-09-10T16:38:25.173Z,33.86
2018-09-10T16:40:53.695Z,32.46
2018-09-10T16:43:22.042Z,31.25
2018-09-10T16:45:50.456Z,30.39
2018-09-10T16:48:18.852Z,29.62
2018-09-10T16:50:47.313Z,29.03
2018-09-10T16:53:15.706Z,28.49
2018-09-10T16:55:44.173Z,28.25
2018-09-10T16:58:12.533Z,27.86
2018-09-10T17:00:41.473Z,27.63
2018-09-10T17:03:09.808Z,27.45
2018-09-10T17:05:38.258Z,27.29
2018-09-10T17:08:06.693Z,27.00
2018-09-10T17:10:38.077Z,26.77
2018-09-10T17:13:06.546Z,26.57
2018-09-10T17:15:34.960Z,26.43
2018-09-10T17:18:03.776Z,26.25
2018-09-10T17:20:32.264Z,26.14
2018-09-10T17:23:00.795Z,25.97
2018-09-10T17:25:29.228Z,25.79
2018-09-10T17:27:57.697Z,25.70
2018-09-10T17:30:26.166Z,25.55
2018-09-10T17:32:54.601Z,25.43
2018-09-10T17:35:23.034Z,25.37
2018-09-10T17:37:51.454Z,25.27
2018-09-10T17:40:19.976Z,25.15
2018-09-10T17:42:48.415Z,25.06
2018-09-10T17:45:16.869Z,25.03
2018-09-10T17:47:45.600Z,24.98
2018-09-10T17:50:13.975Z,24.89
2018-09-10T17:52:42.487Z,24.81
2018-09-10T17:55:10.867Z,24.75
2018-09-10T17:57:39.301Z,24.70
2018-09-10T18:00:08.127Z,24.65
2018-09-10T18:02:37.102Z,24.57
2018-09-10T18:05:05.596Z,24.49
2018-09-10T18:07:34.081Z,24.43
2018-09-10T18:10:02.587Z,24.37
2018-09-10T18:12:30.969Z,24.29
2018-09-10T18:14:59.447Z,24.25
2018-09-10T18:17:27.851Z,24.22
2018-09-10T18:19:56.293Z,24.20
2018-09-10T18:22:24.716Z,24.18
2018-09-10T18:24:53.337Z,24.16
2018-09-10T18:27:21.680Z,24.14
2018-09-10T18:29:50.213Z,24.11
2018-09-10T18:32:18.661Z,24.05
2018-09-10T18:34:47.072Z,23.98
2018-09-10T18:37:15.532Z,23.91
2018-09-10T18:39:44.066Z,23.87
2018-09-10T18:42:12.509Z,23.85
2018-09-10T18:44:40.962Z,23.83
2018-09-10T18:47:09.574Z,23.79
2018-09-10T18:49:38.030Z,23.75
2018-09-10T18:52:06.467Z,23.70
2018-09-10T18:54:34.979Z,23.69
2018-09-10T18:57:03.745Z,23.61
2018-09-10T18:59:32.385Z,23.54
2018-09-10T19:02:00.802Z,23.50
2018-09-10T19:04:30.465Z,23.44
2018-09-10T19:06:58.866Z,23.39
2018-09-10T19:09:27.638Z,23.35
2018-09-10T19:11:56.098Z,23.30
2018-09-10T19:14:24.541Z,23.27
2018-09-10T19:16:52.962Z,23.26
2018-09-10T19:19:21.352Z,23.16
2018-09-10T19:21:50.043Z,23.11
2018-09-10T19:24:18.491Z,23.02
2018-09-10T19:26:46.940Z,22.98
2018-09-10T19:29:15.349Z,22.90
2018-09-10T19:31:43.806Z,22.82
2018-09-10T19:34:12.282Z,22.71
2018-09-10T19:36:40.758Z,22.64
2018-09-10T19:39:10.518Z,22.59
2018-09-10T19:41:39.092Z,22.56
2018-09-10T19:44:07.551Z,22.52
2018-09-10T19:46:35.929Z,22.48
2018-09-10T19:49:04.447Z,22.38
2018-09-10T19:51:32.979Z,22.28
2018-09-10T19:54:01.525Z,22.24
2018-09-10T19:56:29.929Z,22.21
2018-09-10T19:58:58.401Z,22.21
2018-09-10T20:01:26.861Z,22.14
2018-09-10T20:03:55.309Z,22.18
2018-09-10T20:06:23.745Z,22.10
2018-09-10T20:08:52.181Z,21.97
2018-09-10T20:11:20.574Z,21.88
2018-09-10T20:13:49.001Z,21.85
2018-09-10T20:16:17.400Z,21.77
2018-09-10T20:18:46.033Z,21.73
2018-09-10T20:21:14.777Z,21.62
2018-09-10T20:23:43.208Z,21.56
2018-09-10T20:26:11.621Z,21.46
2018-09-10T20:28:40.614Z,21.39
2018-09-10T20:31:09.145Z,21.41
2018-09-10T20:33:42.857Z,21.39
2018-09-10T20:36:11.293Z,21.39
2018-09-10T20:38:39.778Z,21.33
2018-09-10T20:41:08.175Z,21.33
2018-09-10T20:43:36.616Z,21.27
2018-09-10T20:46:05.077Z,21.22
2018-09-10T20:48:33.606Z,21.19
2018-09-10T20:51:02.026Z,21.18
2018-09-10T20:53:30.418Z,21.19
2018-09-10T20:55:58.866Z,21.19
2018-09-10T20:58:27.257Z,21.16
2018-09-10T21:00:55.701Z,21.16
2018-09-10T21:03:24.145Z,21.11
2018-09-10T21:05:52.637Z,21.07
2018-09-10T21:08:21.021Z,21.02
2018-09-10T21:10:49.473Z,20.97
2018-09-10T21:13:17.865Z,20.91
2018-09-10T21:15:46.277Z,20.87
2018-09-10T21:18:14.676Z,20.84
2018-09-10T21:20:43.104Z,20.86
2018-09-10T21:23:11.499Z,20.82
2018-09-10T21:25:39.998Z,20.75
2018-09-10T21:28:08.376Z,20.74
2018-09-10T21:30:37.118Z,20.77
2018-09-10T21:33:05.512Z,20.69
2018-09-10T21:35:33.906Z,20.63
2018-09-10T21:38:02.338Z,20.54
2018-09-10T21:40:30.802Z,20.54
2018-09-10T21:42:59.232Z,20.47
2018-09-10T21:45:27.626Z,20.43
2018-09-10T21:47:56.097Z,20.43
2018-09-10T21:50:24.532Z,20.37
2018-09-10T21:52:52.976Z,20.31
2018-09-10T21:55:21.383Z,20.29
2018-09-10T21:57:50.109Z,20.30
2018-09-10T22:00:18.573Z,20.30
2018-09-10T22:02:47.215Z,20.26
2018-09-10T22:05:15.677Z,20.26
2018-09-10T22:07:44.134Z,20.23
2018-09-10T22:10:12.732Z,20.26
2018-09-10T22:12:41.100Z,20.22
2018-09-10T22:15:09.485Z,20.26
2018-09-10T22:17:37.917Z,20.19
2018-09-10T22:20:06.425Z,20.20
2018-09-10T22:22:34.857Z,20.17
2018-09-10T22:25:03.689Z,20.15
2018-09-10T22:27:32.139Z,20.11
2018-09-10T22:30:00.541Z,20.06
2018-09-10T22:32:29.053Z,20.10
2018-09-10T22:34:57.437Z,20.00
2018-09-10T22:37:25.846Z,19.93
2018-09-10T22:39:54.291Z,19.90
2018-09-10T22:42:22.735Z,19.79
2018-09-10T22:44:51.146Z,19.76
2018-09-10T22:47:19.570Z,19.67
2018-09-10T22:49:48.013Z,19.58
2018-09-10T22:52:16.409Z,19.48
2018-09-10T22:54:44.943Z,19.55
2018-09-10T22:57:13.482Z,19.43
2018-09-10T22:59:42.015Z,19.40
2018-09-10T23:02:10.575Z,19.41
2018-09-10T23:04:39.385Z,19.40
2018-09-10T23:07:07.833Z,19.38
2018-09-10T23:09:36.269Z,19.34
2018-09-10T23:12:04.749Z,19.27
2018-09-10T23:14:33.175Z,19.19
2018-09-10T23:17:01.997Z,19.18
2018-09-10T23:19:30.428Z,19.16
2018-09-10T23:21:58.823Z,19.17
2018-09-10T23:24:27.282Z,19.18
2018-09-10T23:26:55.672Z,19.17
2018-09-10T23:29:24.137Z,19.17
2018-09-10T23:31:52.564Z,19.20
2018-09-10T23:34:20.954Z,19.16
2018-09-10T23:36:49.382Z,19.12
2018-09-10T23:39:17.770Z,19.06
2018-09-10T23:41:46.247Z,19.05
2018-09-10T23:44:14.629Z,19.04
2018-09-10T23:46:43.074Z,19.03
2018-09-10T23:49:11.506Z,19.05
2018-09-10T23:51:39.974Z,19.03
2018-09-10T23:54:08.389Z,19.04
2018-09-10T23:56:36.876Z,19.03
2018-09-10T23:59:06.337Z,19.00
